sensor_id;sensor_type;location;lat;lon;timestamp;pressure;altitude;pressure_sealevel;temperature;humidity
23419;BME280;11882;42.522;27.458;2022-08-24T00:00:21;100632.25;;;26.83;85.65
23419;BME280;11882;42.522;27.458;2022-08-24T00:02:50;100638.81;;;26.82;85.77
23419;BME280;11882;42.522;27.458;2022-08-24T00:05:18;100639.91;;;26.81;85.68
23419;BME280;11882;42.522;27.458;2022-08-24T00:07:47;100633.34;;;26.82;85.92
23419;BME280;11882;42.522;27.458;2022-08-24T00:10:14;100610.97;;;26.80;85.67
23419;BME280;11882;42.522;27.458;2022-08-24T00:12:42;100611.25;;;26.78;85.69
23419;BME280;11882;42.522;27.458;2022-08-24T00:15:11;100620.84;;;26.76;86.18
23419;BME280;11882;42.522;27.458;2022-08-24T00:17:38;100613.22;;;26.73;85.92
23419;BME280;11882;42.522;27.458;2022-08-24T00:20:09;100622.53;;;26.72;86.71
23419;BME280;11882;42.522;27.458;2022-08-24T00:22:37;100627.69;;;26.73;86.75
23419;BME280;11882;42.522;27.458;2022-08-24T00:25:06;100621.41;;;26.73;86.63
23419;BME280;11882;42.522;27.458;2022-08-24T00:27:33;100622.22;;;26.73;86.88
23419;BME280;11882;42.522;27.458;2022-08-24T00:30:02;100626.06;;;26.72;86.69
23419;BME280;11882;42.522;27.458;2022-08-24T00:32:30;100622.22;;;26.73;86.88
23419;BME280;11882;42.522;27.458;2022-08-24T00:34:57;100633.16;;;26.73;86.41
23419;BME280;11882;42.522;27.458;2022-08-24T00:37:25;100626.88;;;26.73;86.86
23419;BME280;11882;42.522;27.458;2022-08-24T00:39:53;100614.34;;;26.72;86.86
23419;BME280;11882;42.522;27.458;2022-08-24T00:42:20;100608.06;;;26.71;87.10
23419;BME280;11882;42.522;27.458;2022-08-24T00:44:47;100612.69;;;26.71;86.53
23419;BME280;11882;42.522;27.458;2022-08-24T00:47:19;100613.81;;;26.70;86.89
23419;BME280;11882;42.522;27.458;2022-08-24T00:49:52;100615.72;;;26.69;87.00
23419;BME280;11882;42.522;27.458;2022-08-24T00:52:26;100609.22;;;26.65;86.84
23419;BME280;11882;42.522;27.458;2022-08-24T00:54:58;100598.56;;;26.63;87.09
23419;BME280;11882;42.522;27.458;2022-08-24T00:57:28;100593.69;;;26.60;86.75
23419;BME280;11882;42.522;27.458;2022-08-24T01:00:01;100596.13;;;26.62;86.38
23419;BME280;11882;42.522;27.458;2022-08-24T01:02:32;100604.59;;;26.60;86.72
23419;BME280;11882;42.522;27.458;2022-08-24T01:05:03;100622.09;;;26.59;86.91
23419;BME280;11882;42.522;27.458;2022-08-24T01:07:34;100626.72;;;26.59;87.13
23419;BME280;11882;42.522;27.458;2022-08-24T01:10:05;100636.53;;;26.60;86.58
23419;BME280;11882;42.522;27.458;2022-08-24T01:12:34;100629.69;;;26.62;86.42
23419;BME280;11882;42.522;27.458;2022-08-24T01:15:05;100637.91;;;26.62;86.09
23419;BME280;11882;42.522;27.458;2022-08-24T01:17:35;100629.69;;;26.62;85.90
23419;BME280;11882;42.522;27.458;2022-08-24T01:20:20;100632.72;;;26.61;85.04
23419;BME280;11882;42.522;27.458;2022-08-24T01:23:01;100635.44;;;26.61;84.70
23419;BME280;11882;42.522;27.458;2022-08-24T01:25:34;100648.00;;;26.62;84.18
23419;BME280;11882;42.522;27.458;2022-08-24T01:28:05;100655.91;;;26.63;84.42
23419;BME280;11882;42.522;27.458;2022-08-24T01:30:33;100655.63;;;26.65;83.67
23419;BME280;11882;42.522;27.458;2022-08-24T01:33:03;100637.31;;;26.65;83.10
23419;BME280;11882;42.522;27.458;2022-08-24T01:35:31;100630.22;;;26.64;82.46
23419;BME280;11882;42.522;27.458;2022-08-24T01:38:01;100636.50;;;26.65;81.90
23419;BME280;11882;42.522;27.458;2022-08-24T01:40:34;100634.06;;;26.63;81.64
23419;BME280;11882;42.522;27.458;2022-08-24T01:43:02;100640.63;;;26.62;81.23
23419;BME280;11882;42.522;27.458;2022-08-24T01:45:31;100643.69;;;26.56;81.14
23419;BME280;11882;42.522;27.458;2022-08-24T01:47:58;100644.22;;;26.58;80.72
23419;BME280;11882;42.522;27.458;2022-08-24T01:50:27;100632.75;;;26.56;80.63
23419;BME280;11882;42.522;27.458;2022-08-24T01:52:57;100634.69;;;26.55;80.13
23419;BME280;11882;42.522;27.458;2022-08-24T01:55:27;100622.13;;;26.54;79.78
23419;BME280;11882;42.522;27.458;2022-08-24T01:57:56;100609.00;;;26.56;79.38
23419;BME280;11882;42.522;27.458;2022-08-24T02:00:24;100599.22;;;26.50;78.89
23419;BME280;11882;42.522;27.458;2022-08-24T02:02:51;100591.09;;;26.45;78.82
23419;BME280;11882;42.522;27.458;2022-08-24T02:05:18;100582.91;;;26.45;78.25
23419;BME280;11882;42.522;27.458;2022-08-24T02:07:45;100575.56;;;26.41;78.19
23419;BME280;11882;42.522;27.458;2022-08-24T02:10:14;100578.59;;;26.39;78.21
23419;BME280;11882;42.522;27.458;2022-08-24T02:12:42;100570.41;;;26.39;78.08
23419;BME280;11882;42.522;27.458;2022-08-24T02:15:11;100560.84;;;26.42;78.19
23419;BME280;11882;42.522;27.458;2022-08-24T02:17:39;100561.66;;;26.42;77.77
23419;BME280;11882;42.522;27.458;2022-08-24T02:20:07;100558.38;;;26.40;77.94
23419;BME280;11882;42.522;27.458;2022-08-24T02:22:35;100552.13;;;26.40;77.46
23419;BME280;11882;42.522;27.458;2022-08-24T02:25:02;100540.38;;;26.39;77.75
23419;BME280;11882;42.522;27.458;2022-08-24T02:27:29;100548.03;;;26.37;78.12
23419;BME280;11882;42.522;27.458;2022-08-24T02:29:56;100535.53;;;26.31;77.79
23419;BME280;11882;42.522;27.458;2022-08-24T02:32:24;100534.19;;;26.28;77.83
23419;BME280;11882;42.522;27.458;2022-08-24T02:34:51;100521.41;;;26.24;77.67
23419;BME280;11882;42.522;27.458;2022-08-24T02:37:18;100539.97;;;26.22;77.84
23419;BME280;11882;42.522;27.458;2022-08-24T02:39:45;100544.13;;;26.14;77.50
23419;BME280;11882;42.522;27.458;2022-08-24T02:42:12;100554.50;;;26.12;77.90
23419;BME280;11882;42.522;27.458;2022-08-24T02:44:40;100564.31;;;26.13;78.04
23419;BME280;11882;42.522;27.458;2022-08-24T02:47:07;100572.50;;;26.13;78.18
23419;BME280;11882;42.522;27.458;2022-08-24T02:49:36;100578.78;;;26.14;77.92
23419;BME280;11882;42.522;27.458;2022-08-24T02:52:03;100592.66;;;26.17;78.04
23419;BME280;11882;42.522;27.458;2022-08-24T02:54:30;100590.47;;;26.19;77.99
23419;BME280;11882;42.522;27.458;2022-08-24T02:56:57;100589.06;;;26.22;78.01
23419;BME280;11882;42.522;27.458;2022-08-24T02:59:24;100596.16;;;26.23;77.72
23419;BME280;11882;42.522;27.458;2022-08-24T03:01:51;100599.72;;;26.18;77.69
23419;BME280;11882;42.522;27.458;2022-08-24T03:04:18;100607.13;;;26.13;78.02
23419;BME280;11882;42.522;27.458;2022-08-24T03:06:47;100614.47;;;26.17;78.29
23419;BME280;11882;42.522;27.458;2022-08-24T03:09:14;100614.47;;;26.17;78.53
23419;BME280;11882;42.522;27.458;2022-08-24T03:11:41;100622.38;;;26.19;78.01
23419;BME280;11882;42.522;27.458;2022-08-24T03:14:08;100624.56;;;26.17;78.14
23419;BME280;11882;42.522;27.458;2022-08-24T03:16:35;100623.75;;;26.16;78.17
23419;BME280;11882;42.522;27.458;2022-08-24T03:19:03;100633.56;;;26.17;78.07
23419;BME280;11882;42.522;27.458;2022-08-24T03:21:30;100632.75;;;26.17;78.69
23419;BME280;11882;42.522;27.458;2022-08-24T03:23:58;100650.75;;;26.18;78.59
23419;BME280;11882;42.522;27.458;2022-08-24T03:26:26;100645.28;;;26.18;79.01
23419;BME280;11882;42.522;27.458;2022-08-24T03:28:53;100648.31;;;26.16;78.79
23419;BME280;11882;42.522;27.458;2022-08-24T03:31:20;100650.22;;;26.16;79.16
23419;BME280;11882;42.522;27.458;2022-08-24T03:33:47;100657.31;;;26.17;78.89
23419;BME280;11882;42.522;27.458;2022-08-24T03:36:14;100659.22;;;26.16;79.25
23419;BME280;11882;42.522;27.458;2022-08-24T03:38:41;100661.66;;;26.18;79.31
23419;BME280;11882;42.522;27.458;2022-08-24T03:41:10;100658.13;;;26.17;78.90
23419;BME280;11882;42.522;27.458;2022-08-24T03:43:38;100652.66;;;26.17;79.01
23419;BME280;11882;42.522;27.458;2022-08-24T03:46:12;100654.28;;;26.18;79.46
23419;BME280;11882;42.522;27.458;2022-08-24T03:48:40;100653.19;;;26.19;79.51
23419;BME280;11882;42.522;27.458;2022-08-24T03:51:11;100662.75;;;26.17;79.82
23419;BME280;11882;42.522;27.458;2022-08-24T03:53:39;100664.41;;;26.18;79.60
23419;BME280;11882;42.522;27.458;2022-08-24T03:56:06;100664.41;;;26.18;79.70
23419;BME280;11882;42.522;27.458;2022-08-24T03:58:35;100665.22;;;26.18;79.42
23419;BME280;11882;42.522;27.458;2022-08-24T04:01:03;100671.47;;;26.19;79.55
23419;BME280;11882;42.522;27.458;2022-08-24T04:03:34;100679.13;;;26.17;80.05
23419;BME280;11882;42.522;27.458;2022-08-24T04:06:01;100682.94;;;26.16;79.92
23419;BME280;11882;42.522;27.458;2022-08-24T04:08:28;100684.06;;;26.15;80.01
23419;BME280;11882;42.522;27.458;2022-08-24T04:10:55;100692.22;;;26.15;80.09
23419;BME280;11882;42.522;27.458;2022-08-24T04:13:23;100697.94;;;26.18;80.06
23419;BME280;11882;42.522;27.458;2022-08-24T04:15:51;100705.84;;;26.20;80.24
23419;BME280;11882;42.522;27.458;2022-08-24T04:18:18;100706.38;;;26.22;80.18
23419;BME280;11882;42.522;27.458;2022-08-24T04:20:46;100699.81;;;26.23;80.20
23419;BME280;11882;42.522;27.458;2022-08-24T04:23:13;100703.09;;;26.25;80.22
23419;BME280;11882;42.522;27.458;2022-08-24T04:25:42;100706.34;;;26.27;80.64
23419;BME280;11882;42.522;27.458;2022-08-24T04:28:11;100709.91;;;26.27;80.54
23419;BME280;11882;42.522;27.458;2022-08-24T04:30:39;100708.50;;;26.30;80.82
23419;BME280;11882;42.522;27.458;2022-08-24T04:33:08;100707.41;;;26.31;80.79
23419;BME280;11882;42.522;27.458;2022-08-24T04:35:37;100710.97;;;26.31;80.70
23419;BME280;11882;42.522;27.458;2022-08-24T04:38:04;100713.97;;;26.30;80.72
23419;BME280;11882;42.522;27.458;2022-08-24T04:40:31;100712.34;;;26.29;80.77
23419;BME280;11882;42.522;27.458;2022-08-24T04:42:59;100712.63;;;26.27;80.98
23419;BME280;11882;42.522;27.458;2022-08-24T04:45:26;100711.25;;;26.30;81.63
23419;BME280;11882;42.522;27.458;2022-08-24T04:47:53;100717.25;;;26.27;81.16
23419;BME280;11882;42.522;27.458;2022-08-24T04:50:22;100723.25;;;26.29;81.14
23419;BME280;11882;42.522;27.458;2022-08-24T04:52:49;100723.78;;;26.31;81.55
23419;BME280;11882;42.522;27.458;2022-08-24T04:55:16;100721.63;;;26.33;81.36
23419;BME280;11882;42.522;27.458;2022-08-24T04:57:43;100723.25;;;26.34;81.04
23419;BME280;11882;42.522;27.458;2022-08-24T05:00:11;100720.78;;;26.38;81.45
23419;BME280;11882;42.522;27.458;2022-08-24T05:02:38;100734.41;;;26.38;81.46
23419;BME280;11882;42.522;27.458;2022-08-24T05:05:06;100744.78;;;26.41;81.57
23419;BME280;11882;42.522;27.458;2022-08-24T05:07:35;100734.09;;;26.44;81.63
23419;BME280;11882;42.522;27.458;2022-08-24T05:10:04;100734.88;;;26.50;81.32
23419;BME280;11882;42.522;27.458;2022-08-24T05:12:32;100730.47;;;26.59;80.88
23419;BME280;11882;42.522;27.458;2022-08-24T05:14:59;100742.13;;;26.70;80.26
23419;BME280;11882;42.522;27.458;2022-08-24T05:17:26;100750.19;;;26.85;79.99
23419;BME280;11882;42.522;27.458;2022-08-24T05:19:53;100762.94;;;27.00;79.47
23419;BME280;11882;42.522;27.458;2022-08-24T05:22:20;100775.44;;;27.11;78.78
23419;BME280;11882;42.522;27.458;2022-08-24T05:24:48;100768.72;;;27.27;79.04
23419;BME280;11882;42.522;27.458;2022-08-24T05:27:16;100775.78;;;27.33;78.52
23419;BME280;11882;42.522;27.458;2022-08-24T05:29:44;100766.75;;;27.33;78.05
23419;BME280;11882;42.522;27.458;2022-08-24T05:32:11;100755.59;;;27.29;77.94
23419;BME280;11882;42.522;27.458;2022-08-24T05:34:38;100746.03;;;27.26;77.95
23419;BME280;11882;42.522;27.458;2022-08-24T05:37:05;100749.06;;;27.25;77.82
23419;BME280;11882;42.522;27.458;2022-08-24T05:39:33;100748.81;;;27.21;78.60
23419;BME280;11882;42.522;27.458;2022-08-24T05:42:01;100753.25;;;27.17;78.29
23419;BME280;11882;42.522;27.458;2022-08-24T05:44:28;100769.97;;;27.11;78.48
23419;BME280;11882;42.522;27.458;2022-08-24T05:46:56;100775.75;;;27.04;78.75
23419;BME280;11882;42.522;27.458;2022-08-24T05:49:23;100777.94;;;27.02;78.94
23419;BME280;11882;42.522;27.458;2022-08-24T05:51:50;100777.94;;;27.02;79.13
23419;BME280;11882;42.522;27.458;2022-08-24T05:54:18;100773.06;;;26.99;78.99
23419;BME280;11882;42.522;27.458;2022-08-24T05:56:45;100760.56;;;26.88;79.22
23419;BME280;11882;42.522;27.458;2022-08-24T05:59:14;100735.53;;;26.76;79.26
23419;BME280;11882;42.522;27.458;2022-08-24T06:01:44;100701.53;;;26.58;80.23
23419;BME280;11882;42.522;27.458;2022-08-24T06:04:11;100688.59;;;26.35;81.73
23419;BME280;11882;42.522;27.458;2022-08-24T06:06:38;100677.69;;;26.29;82.07
23419;BME280;11882;42.522;27.458;2022-08-24T06:09:05;100685.34;;;26.27;81.73
23419;BME280;11882;42.522;27.458;2022-08-24T06:11:34;100698.41;;;26.36;82.82
23419;BME280;11882;42.522;27.458;2022-08-24T06:14:04;100733.31;;;26.39;83.81
23419;BME280;11882;42.522;27.458;2022-08-24T06:16:34;100770.97;;;26.42;85.67
23419;BME280;11882;42.522;27.458;2022-08-24T06:19:01;100795.56;;;26.37;86.46
23419;BME280;11882;42.522;27.458;2022-08-24T06:21:29;100799.66;;;26.29;86.32
23419;BME280;11882;42.522;27.458;2022-08-24T06:23:57;100795.84;;;26.25;87.45
23419;BME280;11882;42.522;27.458;2022-08-24T06:26:24;100792.88;;;26.21;88.18
23419;BME280;11882;42.522;27.458;2022-08-24T06:29:09;100778.69;;;26.19;88.76
23419;BME280;11882;42.522;27.458;2022-08-24T06:31:39;100786.34;;;26.17;89.54
23419;BME280;11882;42.522;27.458;2022-08-24T06:34:06;100794.25;;;26.19;89.61
23419;BME280;11882;42.522;27.458;2022-08-24T06:36:34;100800.22;;;26.21;90.11
23419;BME280;11882;42.522;27.458;2022-08-24T06:39:01;100799.97;;;26.22;90.66
23419;BME280;11882;42.522;27.458;2022-08-24T06:41:29;100801.59;;;26.23;90.68
23419;BME280;11882;42.522;27.458;2022-08-24T06:43:56;100811.66;;;26.28;90.87
23419;BME280;11882;42.522;27.458;2022-08-24T06:46:23;100807.31;;;26.32;90.34
23419;BME280;11882;42.522;27.458;2022-08-24T06:48:52;100800.47;;;26.35;90.81
23419;BME280;11882;42.522;27.458;2022-08-24T06:51:20;100807.84;;;26.34;90.57
23419;BME280;11882;42.522;27.458;2022-08-24T06:53:48;100804.31;;;26.33;91.11
23419;BME280;11882;42.522;27.458;2022-08-24T06:56:16;100801.00;;;26.31;91.22
23419;BME280;11882;42.522;27.458;2022-08-24T06:58:44;100776.19;;;26.28;91.65
23419;BME280;11882;42.522;27.458;2022-08-24T07:01:13;100759.28;;;26.26;91.61
23419;BME280;11882;42.522;27.458;2022-08-24T07:03:41;100743.75;;;26.21;90.99
23419;BME280;11882;42.522;27.458;2022-08-24T07:06:11;100772.69;;;26.17;90.60
23419;BME280;11882;42.522;27.458;2022-08-24T07:08:39;100783.31;;;26.19;90.21
23419;BME280;11882;42.522;27.458;2022-08-24T07:11:08;100769.97;;;26.17;90.43
23419;BME280;11882;42.522;27.458;2022-08-24T07:13:35;100762.09;;;26.11;89.32
23419;BME280;11882;42.522;27.458;2022-08-24T07:16:03;100756.66;;;26.06;88.71
23419;BME280;11882;42.522;27.458;2022-08-24T07:18:30;100756.13;;;26.04;88.67
23419;BME280;11882;42.522;27.458;2022-08-24T07:20:59;100760.47;;;26.05;88.90
23419;BME280;11882;42.522;27.458;2022-08-24T07:23:28;100762.94;;;26.01;89.54
23419;BME280;11882;42.522;27.458;2022-08-24T07:25:55;100770.56;;;25.99;89.48
23419;BME280;11882;42.522;27.458;2022-08-24T07:28:22;100772.75;;;25.97;89.59
23419;BME280;11882;42.522;27.458;2022-08-24T07:30:49;100782.59;;;25.93;89.28
23419;BME280;11882;42.522;27.458;2022-08-24T07:33:16;100794.31;;;25.93;89.33
23419;BME280;11882;42.522;27.458;2022-08-24T07:35:43;100818.31;;;25.91;88.43
23419;BME280;11882;42.522;27.458;2022-08-24T07:38:11;100846.13;;;25.93;88.69
23419;BME280;11882;42.522;27.458;2022-08-24T07:40:39;100862.50;;;25.88;89.15
23419;BME280;11882;42.522;27.458;2022-08-24T07:43:06;100860.84;;;25.87;89.44
23419;BME280;11882;42.522;27.458;2022-08-24T07:45:33;100852.69;;;25.87;89.71
23419;BME280;11882;42.522;27.458;2022-08-24T07:48:00;100842.31;;;25.89;89.50
23419;BME280;11882;42.522;27.458;2022-08-24T07:50:28;100821.88;;;25.87;89.41
23419;BME280;11882;42.522;27.458;2022-08-24T07:52:55;100805.78;;;25.85;88.73
23419;BME280;11882;42.522;27.458;2022-08-24T07:55:22;100769.00;;;25.78;88.24
23419;BME280;11882;42.522;27.458;2022-08-24T07:57:51;100744.75;;;25.71;87.92
23419;BME280;11882;42.522;27.458;2022-08-24T08:00:19;100719.97;;;25.67;88.00
23419;BME280;11882;42.522;27.458;2022-08-24T08:02:47;100694.31;;;25.63;87.05
23419;BME280;11882;42.522;27.458;2022-08-24T08:05:17;100682.31;;;25.64;87.35
23419;BME280;11882;42.522;27.458;2022-08-24T08:07:44;100682.88;;;25.61;86.68
23419;BME280;11882;42.522;27.458;2022-08-24T08:10:11;100686.44;;;25.67;87.18
23419;BME280;11882;42.522;27.458;2022-08-24T08:12:39;100700.88;;;25.73;87.49
23419;BME280;11882;42.522;27.458;2022-08-24T08:15:08;100700.88;;;25.73;87.38
23419;BME280;11882;42.522;27.458;2022-08-24T08:17:36;100720.22;;;25.71;86.92
23419;BME280;11882;42.522;27.458;2022-08-24T08:20:05;100723.75;;;25.77;86.23
23419;BME280;11882;42.522;27.458;2022-08-24T08:22:32;100718.56;;;25.80;86.56
23419;BME280;11882;42.522;27.458;2022-08-24T08:25:17;100728.88;;;25.88;86.10
23419;BME280;11882;42.522;27.458;2022-08-24T08:27:45;100720.69;;;25.93;85.84
23419;BME280;11882;42.522;27.458;2022-08-24T08:30:14;100721.22;;;26.00;85.14
23419;BME280;11882;42.522;27.458;2022-08-24T08:32:41;100726.91;;;26.09;84.77
23419;BME280;11882;42.522;27.458;2022-08-24T08:35:09;100729.88;;;26.18;84.80
23419;BME280;11882;42.522;27.458;2022-08-24T08:37:36;100736.66;;;26.25;84.89
23419;BME280;11882;42.522;27.458;2022-08-24T08:40:05;100748.34;;;26.36;84.82
23419;BME280;11882;42.522;27.458;2022-08-24T08:42:42;100753.75;;;26.46;83.53
23419;BME280;11882;42.522;27.458;2022-08-24T08:45:24;100757.75;;;26.59;83.68
23419;BME280;11882;42.522;27.458;2022-08-24T08:48:22;100770.53;;;26.69;82.55
23419;BME280;11882;42.522;27.458;2022-08-24T08:54:27;100796.88;;;26.88;80.23
23419;BME280;11882;42.522;27.458;2022-08-24T08:57:08;100806.13;;;26.98;79.20
23419;BME280;11882;42.522;27.458;2022-08-24T08:59:50;100818.38;;;27.05;79.66
23419;BME280;11882;42.522;27.458;2022-08-24T09:02:37;100816.94;;;27.13;79.79
23419;BME280;11882;42.522;27.458;2022-08-24T09:08:07;100831.81;;;27.31;77.98
23419;BME280;11882;42.522;27.458;2022-08-24T09:10:47;100831.22;;;27.39;77.98
23419;BME280;11882;42.522;27.458;2022-08-24T09:13:44;100830.31;;;27.48;78.32
23419;BME280;11882;42.522;27.458;2022-08-24T09:16:25;100828.84;;;27.56;78.81
23419;BME280;11882;42.522;27.458;2022-08-24T09:19:22;100815.41;;;27.65;78.12
23419;BME280;11882;42.522;27.458;2022-08-24T09:22:10;100807.38;;;27.73;77.81
23419;BME280;11882;42.522;27.458;2022-08-24T09:24:59;100802.09;;;27.82;78.25
23419;BME280;11882;42.522;27.458;2022-08-24T09:27:36;100796.75;;;27.96;77.39
23419;BME280;11882;42.522;27.458;2022-08-24T09:30:10;100803.72;;;28.07;77.49
23419;BME280;11882;42.522;27.458;2022-08-24T09:32:54;100802.50;;;28.18;75.80
23419;BME280;11882;42.522;27.458;2022-08-24T09:35:32;100796.91;;;28.28;74.95
23419;BME280;11882;42.522;27.458;2022-08-24T09:38:06;100797.38;;;28.35;73.46
23419;BME280;11882;42.522;27.458;2022-08-24T09:40:43;100797.59;;;28.39;73.22
23419;BME280;11882;42.522;27.458;2022-08-24T09:43:43;100802.19;;;28.43;73.23
23419;BME280;11882;42.522;27.458;2022-08-24T09:52:32;100809.97;;;28.36;71.99
23419;BME280;11882;42.522;27.458;2022-08-24T09:55:27;100801.81;;;28.31;71.58
23419;BME280;11882;42.522;27.458;2022-08-24T09:58:12;100794.19;;;28.28;72.07
23419;BME280;11882;42.522;27.458;2022-08-24T10:00:45;100799.72;;;28.23;72.11
23419;BME280;11882;42.522;27.458;2022-08-24T10:03:25;100793.69;;;28.21;72.18
23419;BME280;11882;42.522;27.458;2022-08-24T10:06:16;100788.59;;;28.14;72.20
23419;BME280;11882;42.522;27.458;2022-08-24T10:09:09;100784.34;;;28.03;72.81
23419;BME280;11882;42.522;27.458;2022-08-24T10:11:44;100767.63;;;28.05;73.08
23419;BME280;11882;42.522;27.458;2022-08-24T10:14:22;100768.81;;;27.99;73.50
23419;BME280;11882;42.522;27.458;2022-08-24T10:16:59;100774.34;;;27.93;72.32
23419;BME280;11882;42.522;27.458;2022-08-24T10:19:44;100767.53;;;27.91;72.66
23419;BME280;11882;42.522;27.458;2022-08-24T10:22:25;100764.78;;;27.91;72.79
23419;BME280;11882;42.522;27.458;2022-08-24T10:25:08;100759.03;;;27.92;72.75
23419;BME280;11882;42.522;27.458;2022-08-24T10:27:45;100752.75;;;27.92;72.40
23419;BME280;11882;42.522;27.458;2022-08-24T10:30:44;100736.09;;;27.88;72.60
23419;BME280;11882;42.522;27.458;2022-08-24T10:33:19;100729.00;;;27.87;73.61
23419;BME280;11882;42.522;27.458;2022-08-24T10:36:17;100719.97;;;27.87;74.12
23419;BME280;11882;42.522;27.458;2022-08-24T10:38:48;100705.50;;;27.86;73.64
23419;BME280;11882;42.522;27.458;2022-08-24T10:45:40;100674.28;;;27.87;74.13
23419;BME280;11882;42.522;27.458;2022-08-24T10:48:35;100663.88;;;27.89;72.60
23419;BME280;11882;42.522;27.458;2022-08-24T10:51:16;100660.19;;;27.99;72.93
23419;BME280;11882;42.522;27.458;2022-08-24T10:53:52;100664.41;;;28.10;73.11
23419;BME280;11882;42.522;27.458;2022-08-24T10:56:26;100657.66;;;28.21;72.81
23419;BME280;11882;42.522;27.458;2022-08-24T10:59:01;100669.38;;;28.27;71.65
23419;BME280;11882;42.522;27.458;2022-08-24T11:01:35;100671.16;;;28.37;71.06
23419;BME280;11882;42.522;27.458;2022-08-24T11:04:06;100669.38;;;28.46;71.58
23419;BME280;11882;42.522;27.458;2022-08-24T11:06:36;100674.47;;;28.52;71.28
23419;BME280;11882;42.522;27.458;2022-08-24T11:09:07;100671.06;;;28.61;71.50
23419;BME280;11882;42.522;27.458;2022-08-24T11:11:36;100670.16;;;28.65;70.72
23419;BME280;11882;42.522;27.458;2022-08-24T11:14:06;100668.44;;;28.69;70.40
23419;BME280;11882;42.522;27.458;2022-08-24T11:16:37;100665.19;;;28.67;70.81
23419;BME280;11882;42.522;27.458;2022-08-24T11:19:09;100644.78;;;28.60;71.13
23419;BME280;11882;42.522;27.458;2022-08-24T11:21:44;100652.41;;;28.63;70.99
23419;BME280;11882;42.522;27.458;2022-08-24T11:24:23;100668.81;;;28.63;70.84
23419;BME280;11882;42.522;27.458;2022-08-24T11:26:55;100696.22;;;28.63;70.99
23419;BME280;11882;42.522;27.458;2022-08-24T11:29:27;100708.56;;;28.60;69.65
23419;BME280;11882;42.522;27.458;2022-08-24T11:31:57;100715.16;;;28.59;68.88
23419;BME280;11882;42.522;27.458;2022-08-24T11:34:35;100731.28;;;28.61;69.12
23419;BME280;11882;42.522;27.458;2022-08-24T11:37:03;100757.56;;;28.62;68.70
23419;BME280;11882;42.522;27.458;2022-08-24T11:39:33;100765.72;;;28.67;69.46
23419;BME280;11882;42.522;27.458;2022-08-24T11:42:09;100759.94;;;28.68;69.80
23419;BME280;11882;42.522;27.458;2022-08-24T11:44:44;100753.66;;;28.68;68.66
23419;BME280;11882;42.522;27.458;2022-08-24T11:47:50;100748.16;;;28.68;68.62
23419;BME280;11882;42.522;27.458;2022-08-24T11:50:26;100742.69;;;28.68;68.25
23419;BME280;11882;42.522;27.458;2022-08-24T11:53:05;100741.56;;;28.69;68.50
23419;BME280;11882;42.522;27.458;2022-08-24T11:55:38;100734.19;;;28.69;68.31
23419;BME280;11882;42.522;27.458;2022-08-24T11:58:11;100742.09;;;28.71;69.01
23419;BME280;11882;42.522;27.458;2022-08-24T12:00:46;100736.63;;;28.71;68.57
23419;BME280;11882;42.522;27.458;2022-08-24T12:03:28;100729.22;;;28.71;67.91
23419;BME280;11882;42.522;27.458;2022-08-24T12:06:02;100720.78;;;28.68;66.89
23419;BME280;11882;42.522;27.458;2022-08-24T12:08:39;100715.00;;;28.69;66.37
23419;BME280;11882;42.522;27.458;2022-08-24T12:11:14;100705.97;;;28.69;66.33
23419;BME280;11882;42.522;27.458;2022-08-24T12:13:47;100706.78;;;28.69;66.07
23419;BME280;11882;42.522;27.458;2022-08-24T12:16:22;100707.09;;;28.68;67.05
23419;BME280;11882;42.522;27.458;2022-08-24T12:18:57;100704.34;;;28.68;66.85
23419;BME280;11882;42.522;27.458;2022-08-24T12:21:28;100707.59;;;28.70;66.64
23419;BME280;11882;42.522;27.458;2022-08-24T12:23:59;100712.78;;;28.71;66.62
23419;BME280;11882;42.522;27.458;2022-08-24T12:26:34;100707.00;;;28.73;65.71
23419;BME280;11882;42.522;27.458;2022-08-24T12:29:06;100712.47;;;28.73;65.44
23419;BME280;11882;42.522;27.458;2022-08-24T12:31:38;100714.63;;;28.76;65.28
23419;BME280;11882;42.522;27.458;2022-08-24T12:34:11;100717.88;;;28.78;65.54
23419;BME280;11882;42.522;27.458;2022-08-24T12:36:49;100709.06;;;28.81;66.49
23419;BME280;11882;42.522;27.458;2022-08-24T12:39:19;100702.72;;;28.85;66.83
23419;BME280;11882;42.522;27.458;2022-08-24T12:41:56;100705.66;;;28.89;66.86
23419;BME280;11882;42.522;27.458;2022-08-24T12:44:37;100715.22;;;28.92;66.88
23419;BME280;11882;42.522;27.458;2022-08-24T12:47:06;100703.94;;;28.93;67.40
23419;BME280;11882;42.522;27.458;2022-08-24T12:49:41;100710.25;;;28.94;67.28
23419;BME280;11882;42.522;27.458;2022-08-24T12:52:21;100700.00;;;28.99;66.71
23419;BME280;11882;42.522;27.458;2022-08-24T12:55:00;100696.66;;;29.02;66.95
23419;BME280;11882;42.522;27.458;2022-08-24T12:57:37;100685.41;;;29.04;66.48
23419;BME280;11882;42.522;27.458;2022-08-24T13:00:15;100678.50;;;29.06;66.09
23419;BME280;11882;42.522;27.458;2022-08-24T13:02:54;100674.34;;;29.09;66.54
23419;BME280;11882;42.522;27.458;2022-08-24T13:05:22;100667.44;;;29.11;66.25
23419;BME280;11882;42.522;27.458;2022-08-24T13:07:51;100661.66;;;29.13;65.99
23419;BME280;11882;42.522;27.458;2022-08-24T13:10:39;100657.22;;;29.17;65.25
23419;BME280;11882;42.522;27.458;2022-08-24T13:13:15;100666.75;;;29.19;65.72
23419;BME280;11882;42.522;27.458;2022-08-24T13:16:03;100662.28;;;29.24;65.70
23419;BME280;11882;42.522;27.458;2022-08-24T13:18:52;100653.97;;;29.29;65.12